Terminal Aerodrome Forecast
Issued by NWS

Home | Current Version | Previous Version | Text Only | Print | Product List | Glossary On
Versions: 1 2 3 4 5 6 7 8 9 10 11 12 13 14 15 16 17
000
FTUS42 KMHX 291103 AAB
TAFISO
TAF AMD
KISO 291103Z 2911/3006 35005KT 3SM BR OVC003
     FM291400 01007KT P6SM SCT007 BKN015
     FM291600 01007KT P6SM SCT040
     FM300000 08005KT P6SM SCT040
      AMD LTD TO CLD VIS AND WIND=

USA.gov is the U.S. government's official web portal to all federal, state and local government web resources and services.